San Valentino — IQXH — position and weather

sailwx.info

Track history (hours):
 
Tides and Currents Weather Stations Pressure Air Temp Water Temp Dewpoint Dewpoint Depression Visibility Wind Speed Wind Dir Waves Ship Positions

San Valentino

Last reported at 2018-Apr-25 15:34 UTC. Time now 2018-Apr-25 20:16 UTC.
Position N 40°38' E 014°23'.

Length 32 m; draft 2 m.

Type: Ship. MMSI: 247065100.

Date/timePositionNaut miles runAvg speedWind from/ knotsBaromVisibWave heightAir tempDewpointWater temp
2018-Apr-25 15:34N 40°38' E 014°23'0 1.6
2018-Apr-25 15:31N 40°38' E 014°23'3 5.5
2018-Apr-25 15:00N 40°37' E 014°19'3 6.0
2018-Apr-25 14:30N 40°35' E 014°22'5 9.7
2018-Apr-25 14:00N 40°37' E 014°27'2 3.1
2018-Apr-25 13:27N 40°37' E 014°29'0 0.0
2018-Apr-25 10:53N 40°37' E 014°29'1 1.6
2018-Apr-25 10:31N 40°37' E 014°29'5 9.6
2018-Apr-25 09:58N 40°35' E 014°22'4 9.2
2018-Apr-25 09:30N 40°33' E 014°17'1 2.6
2018-Apr-25 09:00N 40°33' E 014°16'3 6.9
2018-Apr-25 08:30N 40°36' E 014°18'4 7.7
2018-Apr-25 08:00N 40°38' E 014°23'0 0.0
2018-Apr-25 07:30N 40°38' E 014°23'0 0.0
2018-Apr-23 15:22N 40°38' E 014°23'2 6.6
2018-Apr-23 15:00N 40°37' E 014°19'3 6.2
2018-Apr-23 14:30N 40°35' E 014°21'5 9.3
2018-Apr-23 14:00N 40°37' E 014°27'2 2.5
2018-Apr-23 13:07N 40°37' E 014°29'0 0.0
2018-Apr-23 13:00N 40°37' E 014°29'0 0.0
2018-Apr-23 12:30N 40°37' E 014°29'0 0.0
2018-Apr-23 11:53N 40°37' E 014°29'0 0.0
2018-Apr-23 11:30N 40°37' E 014°29'0 0.0
2018-Apr-23 11:01N 40°37' E 014°29'0 0.4
2018-Apr-23 10:14N 40°37' E 014°29'2 9.9
2018-Apr-23 10:01N 40°36' E 014°26'8 6.7
2018-Apr-23 08:48N 40°34' E 014°16'3 9.5
2018-Apr-23 08:30N 40°36' E 014°18'3 7.0
2018-Apr-23 08:00N 40°38' E 014°23'0 0.0
2018-Apr-22 15:20N 40°38' E 014°23'2 6.4
2018-Apr-22 15:00N 40°38' E 014°20'3 6.5
2018-Apr-22 14:29N 40°34' E 014°21'5 9.5
2018-Apr-22 14:00N 40°36' E 014°26'3 0.8
2018-Apr-22 10:35N 40°37' E 014°30'0 3.8
2018-Apr-22 10:30N 40°37' E 014°29'2 5.0
2018-Apr-22 10:00N 40°36' E 014°26'9 8.2
2018-Apr-22 08:56N 40°33' E 014°16'4 8.5
2018-Apr-22 08:30N 40°36' E 014°18'4 7.8
2018-Apr-22 08:00N 40°38' E 014°23'0 0.0
2018-Apr-21 15:51N 40°38' E 014°23'1 3.5
2018-Apr-21 15:30N 40°38' E 014°24'4 7.2
2018-Apr-21 15:00N 40°37' E 014°20'3 6.5
2018-Apr-21 14:30N 40°34' E 014°21'5 9.7
2018-Apr-21 13:58N 40°37' E 014°27'2 0.5
2018-Apr-21 10:31N 40°37' E 014°29'0 5.8
2018-Apr-21 10:30N 40°37' E 014°29'1 1.9
2018-Apr-21 10:00N 40°37' E 014°28'2 4.2
2018-Apr-21 09:30N 40°36' E 014°26'5 6.1
2018-Apr-21 08:41N 40°36' E 014°19'2 9.2
2018-Apr-21 08:30N 40°38' E 014°20'3 6.8
2018-Apr-21 08:00N 40°38' E 014°24'0 0.0
2018-Apr-21 07:30N 40°38' E 014°24'1 1.9
2018-Apr-21 07:00N 40°38' E 014°23'0 0.0
2018-Apr-20 08:56N 40°38' E 014°23'  
Track history (hours):
 
Tides and Currents Weather Stations Pressure Air Temp Water Temp Dewpoint Dewpoint Depression Visibility Wind Speed Wind Dir Waves Ship Positions

San Valentino

Last reported at 2018-Apr-25 15:34 UTC. Time now 2018-Apr-25 20:16 UTC.
Position N 40°38' E 014°23'.

Length 32 m; draft 2 m.

Type: Ship. MMSI: 247065100.

Date/timePositionNaut miles runAvg speedWind from/ knotsBaromVisibWave heightAir tempDewpointWater temp
2018-Apr-25 15:34N 40°38' E 014°23'0 1.6
2018-Apr-25 15:31N 40°38' E 014°23'3 5.5
2018-Apr-25 15:00N 40°37' E 014°19'3 6.0
2018-Apr-25 14:30N 40°35' E 014°22'5 9.7
2018-Apr-25 14:00N 40°37' E 014°27'2 3.1
2018-Apr-25 13:27N 40°37' E 014°29'0 0.0
2018-Apr-25 10:53N 40°37' E 014°29'1 1.6
2018-Apr-25 10:31N 40°37' E 014°29'5 9.6
2018-Apr-25 09:58N 40°35' E 014°22'4 9.2
2018-Apr-25 09:30N 40°33' E 014°17'1 2.6
2018-Apr-25 09:00N 40°33' E 014°16'3 6.9
2018-Apr-25 08:30N 40°36' E 014°18'4 7.7
2018-Apr-25 08:00N 40°38' E 014°23'0 0.0
2018-Apr-25 07:30N 40°38' E 014°23'0 0.0
2018-Apr-23 15:22N 40°38' E 014°23'2 6.6
2018-Apr-23 15:00N 40°37' E 014°19'3 6.2
2018-Apr-23 14:30N 40°35' E 014°21'5 9.3
2018-Apr-23 14:00N 40°37' E 014°27'2 2.5
2018-Apr-23 13:07N 40°37' E 014°29'0 0.0
2018-Apr-23 13:00N 40°37' E 014°29'0 0.0
2018-Apr-23 12:30N 40°37' E 014°29'0 0.0
2018-Apr-23 11:53N 40°37' E 014°29'0 0.0
2018-Apr-23 11:30N 40°37' E 014°29'0 0.0
2018-Apr-23 11:01N 40°37' E 014°29'0 0.4
2018-Apr-23 10:14N 40°37' E 014°29'2 9.9
2018-Apr-23 10:01N 40°36' E 014°26'8 6.7
2018-Apr-23 08:48N 40°34' E 014°16'3 9.5
2018-Apr-23 08:30N 40°36' E 014°18'3 7.0
2018-Apr-23 08:00N 40°38' E 014°23'0 0.0
2018-Apr-22 15:20N 40°38' E 014°23'2 6.4
2018-Apr-22 15:00N 40°38' E 014°20'3 6.5
2018-Apr-22 14:29N 40°34' E 014°21'5 9.5
2018-Apr-22 14:00N 40°36' E 014°26'3 0.8
2018-Apr-22 10:35N 40°37' E 014°30'0 3.8
2018-Apr-22 10:30N 40°37' E 014°29'2 5.0
2018-Apr-22 10:00N 40°36' E 014°26'9 8.2
2018-Apr-22 08:56N 40°33' E 014°16'4 8.5
2018-Apr-22 08:30N 40°36' E 014°18'4 7.8
2018-Apr-22 08:00N 40°38' E 014°23'0 0.0
2018-Apr-21 15:51N 40°38' E 014°23'1 3.5
2018-Apr-21 15:30N 40°38' E 014°24'4 7.2
2018-Apr-21 15:00N 40°37' E 014°20'3 6.5
2018-Apr-21 14:30N 40°34' E 014°21'5 9.7
2018-Apr-21 13:58N 40°37' E 014°27'2 0.5
2018-Apr-21 10:31N 40°37' E 014°29'0 5.8
2018-Apr-21 10:30N 40°37' E 014°29'1 1.9
2018-Apr-21 10:00N 40°37' E 014°28'2 4.2
2018-Apr-21 09:30N 40°36' E 014°26'5 6.1
2018-Apr-21 08:41N 40°36' E 014°19'2 9.2
2018-Apr-21 08:30N 40°38' E 014°20'3 6.8
2018-Apr-21 08:00N 40°38' E 014°24'0 0.0
2018-Apr-21 07:30N 40°38' E 014°24'1 1.9
2018-Apr-21 07:00N 40°38' E 014°23'0 0.0
2018-Apr-20 08:56N 40°38' E 014°23'  

Dump ship's entire track history